createdAt,value
2018-05-17T00:00:19.215Z,1006.32
2018-05-17T00:01:01.249Z,1006.34
2018-05-17T00:01:43.796Z,1006.31
2018-05-17T00:02:25.484Z,1006.33
2018-05-17T00:03:06.489Z,1006.33
2018-05-17T00:03:47.497Z,1006.31
2018-05-17T00:04:29.532Z,1006.33
2018-05-17T00:05:11.434Z,1006.32
2018-05-17T00:05:53.145Z,1006.33
2018-05-17T00:06:34.313Z,1006.31
2018-05-17T00:07:15.392Z,1006.38
2018-05-17T00:07:56.239Z,1006.37
2018-05-17T00:08:37.254Z,1006.33
2018-05-17T00:09:19.140Z,1006.32
2018-05-17T00:10:01.463Z,1006.33
2018-05-17T00:10:44.769Z,1006.33
2018-05-17T00:11:26.864Z,1006.33
2018-05-17T00:12:08.015Z,1006.35
2018-05-17T00:12:49.559Z,1006.35
2018-05-17T00:13:31.512Z,1006.34
2018-05-17T00:14:13.916Z,1006.35
2018-05-17T00:14:54.975Z,1006.36
2018-05-17T00:15:36.889Z,1006.38
2018-05-17T00:16:17.701Z,1006.34
2018-05-17T00:16:58.850Z,1006.33
2018-05-17T00:17:39.931Z,1006.35
2018-05-17T00:18:20.942Z,1006.36
2018-05-17T00:19:02.710Z,1006.34
2018-05-17T00:19:44.485Z,1006.34
2018-05-17T00:20:25.347Z,1006.34
2018-05-17T00:21:08.970Z,1006.36
2018-05-17T00:21:49.942Z,1006.34
2018-05-17T00:22:30.496Z,1006.38
2018-05-17T00:23:11.058Z,1006.33
2018-05-17T00:23:51.613Z,1006.33
2018-05-17T00:24:32.185Z,1006.38
2018-05-17T00:25:12.759Z,1006.38
2018-05-17T00:25:53.326Z,1006.39
2018-05-17T00:26:33.890Z,1006.41
2018-05-17T00:27:14.458Z,1006.43
2018-05-17T00:27:55.022Z,1006.42
2018-05-17T00:28:35.595Z,1006.41
2018-05-17T00:29:16.165Z,1006.44
2018-05-17T00:29:56.741Z,1006.44
2018-05-17T00:30:37.306Z,1006.45
2018-05-17T00:31:17.865Z,1006.44
2018-05-17T00:31:58.419Z,1006.44
2018-05-17T00:32:39.014Z,1006.43
2018-05-17T00:33:19.559Z,1006.4
2018-05-17T00:34:00.142Z,1006.42
2018-05-17T00:34:40.719Z,1006.39
2018-05-17T00:35:21.274Z,1006.37
2018-05-17T00:36:01.846Z,1006.38
2018-05-17T00:36:42.400Z,1006.33
2018-05-17T00:37:22.970Z,1006.35
2018-05-17T00:38:03.510Z,1006.36
2018-05-17T00:38:44.069Z,1006.34
2018-05-17T00:39:24.645Z,1006.35
2018-05-17T00:40:05.219Z,1006.34
2018-05-17T00:40:45.772Z,1006.37
2018-05-17T00:41:26.330Z,1006.33
2018-05-17T00:42:06.917Z,1006.34
2018-05-17T00:42:47.498Z,1006.33
2018-05-17T00:43:28.066Z,1006.35
2018-05-17T00:44:08.639Z,1006.32
2018-05-17T00:44:49.247Z,1006.35
2018-05-17T00:45:29.806Z,1006.33
2018-05-17T00:46:10.395Z,1006.32
2018-05-17T00:46:50.957Z,1006.36
2018-05-17T00:47:31.525Z,1006.3
2018-05-17T00:48:12.079Z,1006.31
2018-05-17T00:48:52.647Z,1006.33
2018-05-17T00:49:33.221Z,1006.31
2018-05-17T00:50:13.798Z,1006.29
2018-05-17T00:50:54.362Z,1006.33
2018-05-17T00:51:34.941Z,1006.3
2018-05-17T00:52:15.497Z,1006.31
2018-05-17T00:52:56.066Z,1006.35
2018-05-17T00:53:36.623Z,1006.3
2018-05-17T00:54:17.196Z,1006.29
2018-05-17T00:54:57.779Z,1006.32
2018-05-17T00:55:38.352Z,1006.29
2018-05-17T00:56:18.915Z,1006.31
2018-05-17T00:56:59.468Z,1006.3
2018-05-17T00:57:40.035Z,1006.3
2018-05-17T00:58:20.611Z,1006.27
2018-05-17T00:59:01.188Z,1006.28
2018-05-17T00:59:41.747Z,1006.27
2018-05-17T01:00:22.328Z,1006.31
2018-05-17T01:01:02.923Z,1006.32
2018-05-17T01:01:43.479Z,1006.35
2018-05-17T01:02:24.047Z,1006.28
2018-05-17T01:03:04.634Z,1006.29
2018-05-17T01:03:45.222Z,1006.3
2018-05-17T01:04:25.780Z,1006.31
2018-05-17T01:05:06.364Z,1006.31
2018-05-17T01:05:46.924Z,1006.27
2018-05-17T01:06:27.475Z,1006.26
2018-05-17T01:07:08.045Z,1006.34
2018-05-17T01:07:48.601Z,1006.31
2018-05-17T01:08:29.169Z,1006.27
2018-05-17T01:09:09.752Z,1006.27
2018-05-17T01:09:50.313Z,1006.23
2018-05-17T01:10:30.894Z,1006.28
2018-05-17T01:11:11.463Z,1006.27
2018-05-17T01:11:52.036Z,1006.24
2018-05-17T01:12:32.593Z,1006.22
2018-05-17T01:13:13.243Z,1006.26
2018-05-17T01:13:53.707Z,1006.22
2018-05-17T01:14:34.276Z,1006.23
2018-05-17T01:15:14.872Z,1006.23
2018-05-17T01:15:55.430Z,1006.28
2018-05-17T01:16:35.976Z,1006.25
2018-05-17T01:17:16.554Z,1006.23
2018-05-17T01:17:57.104Z,1006.21
2018-05-17T01:18:37.681Z,1006.22
2018-05-17T01:19:18.249Z,1006.21
2018-05-17T01:19:58.793Z,1006.21
2018-05-17T01:20:39.359Z,1006.2
2018-05-17T01:21:19.911Z,1006.21
2018-05-17T01:22:00.476Z,1006.19
2018-05-17T01:22:41.037Z,1006.2
2018-05-17T01:23:21.615Z,1006.15
2018-05-17T01:24:02.167Z,1006.14
2018-05-17T01:24:42.766Z,1006.16
2018-05-17T01:25:23.332Z,1006.11
2018-05-17T01:26:03.923Z,1006.17
2018-05-17T01:26:44.496Z,1006.14
2018-05-17T01:27:25.061Z,1006.14
2018-05-17T01:28:05.642Z,1006.12
2018-05-17T01:28:46.205Z,1006.09
2018-05-17T01:29:26.776Z,1006.12
2018-05-17T01:30:07.358Z,1006.12
2018-05-17T01:30:47.915Z,1006.07
2018-05-17T01:31:28.531Z,1006.1
2018-05-17T01:32:09.127Z,1006.11
2018-05-17T01:32:49.708Z,1006.1
2018-05-17T01:33:30.253Z,1006.09
2018-05-17T01:34:10.806Z,1006.12
2018-05-17T01:34:51.371Z,1006.09
2018-05-17T01:35:31.935Z,1006.09
2018-05-17T01:36:12.492Z,1006.07
2018-05-17T01:36:53.052Z,1006.05
2018-05-17T01:37:33.617Z,1006.08
2018-05-17T01:38:14.179Z,1006.1
2018-05-17T01:38:54.748Z,1006.08
2018-05-17T01:39:35.317Z,1006.04
2018-05-17T01:40:15.869Z,1006.06
2018-05-17T01:40:56.453Z,1006.06
2018-05-17T01:41:37.010Z,1006.09
2018-05-17T01:42:17.576Z,1006.07
2018-05-17T01:42:58.151Z,1006.06
2018-05-17T01:43:38.729Z,1006.07
2018-05-17T01:44:19.322Z,1006.04
2018-05-17T01:44:59.892Z,1006.09
2018-05-17T01:45:40.491Z,1006.09
2018-05-17T01:46:21.062Z,1006.07
2018-05-17T01:47:01.627Z,1006.07
2018-05-17T01:47:42.173Z,1006.07
2018-05-17T01:48:22.741Z,1006.09
2018-05-17T01:49:03.292Z,1006.1
2018-05-17T01:49:43.918Z,1006.07
2018-05-17T01:50:24.479Z,1006.1
2018-05-17T01:51:05.047Z,1006.09
2018-05-17T01:51:45.646Z,1006.11
2018-05-17T01:52:26.207Z,1006.09
2018-05-17T01:53:06.799Z,1006.08
2018-05-17T01:53:47.353Z,1006.08
2018-05-17T01:54:27.928Z,1006.11
2018-05-17T01:55:08.499Z,1006.09
2018-05-17T01:55:49.039Z,1006.09
2018-05-17T01:56:29.608Z,1006.08
2018-05-17T01:57:10.178Z,1006.09
2018-05-17T01:57:50.759Z,1006.06
2018-05-17T01:58:31.341Z,1006.06
2018-05-17T01:59:11.893Z,1006.02
2018-05-17T01:59:52.465Z,1006.02
2018-05-17T02:00:33.038Z,1006.01
2018-05-17T02:01:13.584Z,1006.04
2018-05-17T02:01:54.156Z,1006
2018-05-17T02:02:34.721Z,1006.04
2018-05-17T02:03:15.264Z,1006.03
2018-05-17T02:03:55.832Z,1006.02
2018-05-17T02:04:36.394Z,1006.06
2018-05-17T02:05:16.986Z,1006.02
2018-05-17T02:05:57.556Z,1006.03
2018-05-17T02:06:38.203Z,1006.04
2018-05-17T02:07:18.765Z,1006.04
2018-05-17T02:07:59.332Z,1006.05
2018-05-17T02:08:39.912Z,1006.06
2018-05-17T02:09:20.473Z,1006.04
2018-05-17T02:10:01.022Z,1006.09
2018-05-17T02:10:41.646Z,1006.06
2018-05-17T02:11:22.201Z,1006.05
2018-05-17T02:12:02.753Z,1006.08
2018-05-17T02:12:43.314Z,1006.08
2018-05-17T02:13:23.862Z,1006.05
2018-05-17T02:14:04.414Z,1006.06
2018-05-17T02:14:44.987Z,1006.07
2018-05-17T02:15:25.563Z,1006.07
2018-05-17T02:16:06.127Z,1006.09
2018-05-17T02:16:46.679Z,1006.08
2018-05-17T02:17:27.252Z,1006.08
2018-05-17T02:18:07.805Z,1006.05
2018-05-17T02:18:48.375Z,1006.04
2018-05-17T02:19:28.937Z,1006.09
2018-05-17T02:20:09.502Z,1006.1
2018-05-17T02:20:50.073Z,1006.07
2018-05-17T02:21:30.636Z,1006.07
2018-05-17T02:22:11.198Z,1006.05
2018-05-17T02:22:51.813Z,1006.06
2018-05-17T02:23:32.379Z,1006.07
2018-05-17T02:24:12.964Z,1006.06
2018-05-17T02:24:53.539Z,1006.09
2018-05-17T02:25:34.164Z,1006.06
2018-05-17T02:26:14.724Z,1006.08
2018-05-17T02:26:55.295Z,1006.08
2018-05-17T02:27:35.858Z,1006.07
2018-05-17T02:28:16.415Z,1006.11
2018-05-17T02:28:56.992Z,1006.1
2018-05-17T02:29:37.567Z,1006.14
2018-05-17T02:30:18.154Z,1006.09
2018-05-17T02:30:58.712Z,1006.12
2018-05-17T02:31:39.256Z,1006.17
2018-05-17T02:32:19.827Z,1006.13
2018-05-17T02:33:00.405Z,1006.19
2018-05-17T02:33:40.972Z,1006.18
2018-05-17T02:34:21.548Z,1006.21
2018-05-17T02:35:02.122Z,1006.21
2018-05-17T02:35:42.681Z,1006.16
2018-05-17T02:36:23.251Z,1006.16
2018-05-17T02:37:03.806Z,1006.17
2018-05-17T02:37:44.382Z,1006.18
2018-05-17T02:38:24.948Z,1006.17
2018-05-17T02:39:05.524Z,1006.16
2018-05-17T02:39:46.087Z,1006.25
2018-05-17T02:40:26.677Z,1006.25
2018-05-17T02:41:07.247Z,1006.25
2018-05-17T02:41:47.799Z,1006.26
2018-05-17T02:42:28.353Z,1006.25
2018-05-17T02:43:08.928Z,1006.26
2018-05-17T02:43:49.488Z,1006.21
2018-05-17T02:44:30.043Z,1006.28
2018-05-17T02:45:10.614Z,1006.3
2018-05-17T02:45:51.193Z,1006.25
2018-05-17T02:46:31.798Z,1006.26
2018-05-17T02:47:12.387Z,1006.28
2018-05-17T02:47:52.965Z,1006.29
2018-05-17T02:48:33.527Z,1006.27
2018-05-17T02:49:14.140Z,1006.25
2018-05-17T02:49:54.702Z,1006.25
2018-05-17T02:50:35.254Z,1006.27
2018-05-17T02:51:15.805Z,1006.24
2018-05-17T02:51:56.372Z,1006.22
2018-05-17T02:52:36.941Z,1006.2
2018-05-17T02:53:17.496Z,1006.22
2018-05-17T02:53:58.060Z,1006.21
2018-05-17T02:54:38.629Z,1006.23
2018-05-17T02:55:19.229Z,1006.25
2018-05-17T02:55:59.798Z,1006.23
2018-05-17T02:56:40.384Z,1006.23
2018-05-17T02:57:20.967Z,1006.25
2018-05-17T02:58:01.552Z,1006.22
2018-05-17T02:58:42.123Z,1006.21
2018-05-17T02:59:22.699Z,1006.19
2018-05-17T03:00:03.276Z,1006.19
2018-05-17T03:00:43.826Z,1006.18
2018-05-17T03:01:24.480Z,1006.16
2018-05-17T03:02:05.038Z,1006.17
2018-05-17T03:02:45.601Z,1006.19
2018-05-17T03:03:26.275Z,1006.17
2018-05-17T03:04:06.740Z,1006.14
2018-05-17T03:04:47.326Z,1006.16
2018-05-17T03:05:27.898Z,1006.15
2018-05-17T03:06:08.459Z,1006.2
2018-05-17T03:06:49.035Z,1006.18
2018-05-17T03:07:29.632Z,1006.18
2018-05-17T03:08:10.200Z,1006.21
2018-05-17T03:08:50.758Z,1006.19
2018-05-17T03:09:31.313Z,1006.18
2018-05-17T03:10:11.894Z,1006.18
2018-05-17T03:10:52.459Z,1006.19
2018-05-17T03:11:33.011Z,1006.18
2018-05-17T03:12:13.580Z,1006.19
2018-05-17T03:12:54.148Z,1006.17
2018-05-17T03:13:34.713Z,1006.23
2018-05-17T03:14:15.267Z,1006.22
2018-05-17T03:14:55.824Z,1006.23
2018-05-17T03:15:36.375Z,1006.19
2018-05-17T03:16:16.918Z,1006.22
2018-05-17T03:16:57.468Z,1006.2
2018-05-17T03:17:38.041Z,1006.19
2018-05-17T03:18:18.613Z,1006.21
2018-05-17T03:18:59.185Z,1006.23
2018-05-17T03:19:39.751Z,1006.22
2018-05-17T03:20:20.372Z,1006.24
2018-05-17T03:21:00.914Z,1006.29
2018-05-17T03:21:41.479Z,1006.25
2018-05-17T03:22:22.036Z,1006.27
2018-05-17T03:23:02.603Z,1006.26
2018-05-17T03:23:43.168Z,1006.23
2018-05-17T03:24:23.733Z,1006.26
2018-05-17T03:25:04.301Z,1006.26
2018-05-17T03:25:44.893Z,1006.25
2018-05-17T03:26:25.400Z,1006.28
2018-05-17T03:27:05.975Z,1006.26
2018-05-17T03:27:46.535Z,1006.28
2018-05-17T03:28:27.090Z,1006.28
2018-05-17T03:29:07.678Z,1006.29
2018-05-17T03:29:48.265Z,1006.26
2018-05-17T03:30:28.843Z,1006.3
2018-05-17T03:31:09.411Z,1006.3
2018-05-17T03:31:49.922Z,1006.29
2018-05-17T03:32:30.485Z,1006.33
2018-05-17T03:33:11.057Z,1006.27
2018-05-17T03:33:51.613Z,1006.32
2018-05-17T03:34:32.188Z,1006.36
2018-05-17T03:35:12.767Z,1006.36
2018-05-17T03:35:53.336Z,1006.38
2018-05-17T03:36:33.889Z,1006.42
2018-05-17T03:37:14.454Z,1006.39
2018-05-17T03:37:55.035Z,1006.4
2018-05-17T03:38:35.619Z,1006.42
2018-05-17T03:39:16.173Z,1006.41
2018-05-17T03:39:56.723Z,1006.41
2018-05-17T03:40:37.324Z,1006.43
2018-05-17T03:41:17.914Z,1006.42
2018-05-17T03:41:58.462Z,1006.44
2018-05-17T03:42:39.023Z,1006.47
2018-05-17T03:43:19.607Z,1006.47
2018-05-17T03:44:00.162Z,1006.45
2018-05-17T03:44:40.718Z,1006.48
2018-05-17T03:45:21.298Z,1006.46
2018-05-17T03:46:01.866Z,1006.46
2018-05-17T03:46:42.454Z,1006.45
2018-05-17T03:47:23.049Z,1006.45
2018-05-17T03:48:03.630Z,1006.47
2018-05-17T03:48:44.221Z,1006.47
2018-05-17T03:49:24.790Z,1006.45
2018-05-17T03:50:05.344Z,1006.4
2018-05-17T03:50:45.921Z,1006.53
2018-05-17T03:51:26.468Z,1006.47
2018-05-17T03:52:07.040Z,1006.44
2018-05-17T03:52:47.612Z,1006.49
2018-05-17T03:53:28.181Z,1006.48
2018-05-17T03:54:08.747Z,1006.48
2018-05-17T03:54:49.321Z,1006.53
2018-05-17T03:55:29.895Z,1006.52
2018-05-17T03:56:10.457Z,1006.46
2018-05-17T03:56:51.007Z,1006.54
2018-05-17T03:57:31.576Z,1006.49
2018-05-17T03:58:12.136Z,1006.53
2018-05-17T03:58:52.720Z,1006.5
2018-05-17T03:59:33.302Z,1006.51
2018-05-17T04:00:13.866Z,1006.51
2018-05-17T04:00:54.437Z,1006.51
2018-05-17T04:01:34.987Z,1006.53
2018-05-17T04:02:15.553Z,1006.49
2018-05-17T04:02:56.107Z,1006.47
2018-05-17T04:03:36.672Z,1006.5
2018-05-17T04:04:17.261Z,1006.47
2018-05-17T04:04:57.905Z,1006.48
2018-05-17T04:05:38.409Z,1006.49
2018-05-17T04:06:18.965Z,1006.49
2018-05-17T04:06:59.518Z,1006.48
2018-05-17T04:07:40.097Z,1006.54
2018-05-17T04:08:20.663Z,1006.5
2018-05-17T04:09:01.254Z,1006.54
2018-05-17T04:09:41.822Z,1006.52
2018-05-17T04:10:22.377Z,1006.55
2018-05-17T04:11:02.953Z,1006.53
2018-05-17T04:11:43.557Z,1006.62
2018-05-17T04:12:24.128Z,1006.58
2018-05-17T04:13:04.695Z,1006.55
2018-05-17T04:13:45.277Z,1006.62
2018-05-17T04:14:25.845Z,1006.59
2018-05-17T04:15:06.401Z,1006.63
2018-05-17T04:15:47.007Z,1006.61
2018-05-17T04:16:27.565Z,1006.66
2018-05-17T04:17:08.133Z,1006.65
2018-05-17T04:17:48.684Z,1006.62
2018-05-17T04:18:29.243Z,1006.62
2018-05-17T04:19:09.811Z,1006.66
2018-05-17T04:19:50.380Z,1006.67
2018-05-17T04:20:30.934Z,1006.67
2018-05-17T04:21:11.504Z,1006.69
2018-05-17T04:21:52.060Z,1006.68
2018-05-17T04:22:32.649Z,1006.67
2018-05-17T04:23:13.170Z,1006.69
2018-05-17T04:23:53.744Z,1006.67
2018-05-17T04:24:34.307Z,1006.63
2018-05-17T04:25:14.875Z,1006.66
2018-05-17T04:25:55.434Z,1006.68
2018-05-17T04:26:36.019Z,1006.72
2018-05-17T04:27:16.557Z,1006.7
2018-05-17T04:27:57.168Z,1006.66
2018-05-17T04:28:38.436Z,1006.73
2018-05-17T04:29:19.621Z,1006.69
2018-05-17T04:30:00.540Z,1006.69
2018-05-17T04:30:42.295Z,1006.68
2018-05-17T04:31:23.292Z,1006.69
2018-05-17T04:32:03.975Z,1006.72
2018-05-17T04:32:44.539Z,1006.75
2018-05-17T04:33:25.118Z,1006.66
2018-05-17T04:34:05.684Z,1006.7
2018-05-17T04:34:46.254Z,1006.74
2018-05-17T04:35:26.799Z,1006.67
2018-05-17T04:36:07.352Z,1006.71
2018-05-17T04:36:47.977Z,1006.71
2018-05-17T04:37:28.529Z,1006.74
2018-05-17T04:38:09.353Z,1006.71
2018-05-17T04:38:50.143Z,1006.7
2018-05-17T04:39:30.918Z,1006.71
2018-05-17T04:40:12.911Z,1006.71
2018-05-17T04:40:53.817Z,1006.66
2018-05-17T04:41:34.802Z,1006.71
2018-05-17T04:42:15.658Z,1006.77
2018-05-17T04:42:58.332Z,1006.72
2018-05-17T04:43:40.123Z,1006.78
2018-05-17T04:44:21.060Z,1006.8
2018-05-17T04:45:01.934Z,1006.78
2018-05-17T04:45:42.966Z,1006.78
2018-05-17T04:46:24.075Z,1006.77
2018-05-17T04:47:05.054Z,1006.78
2018-05-17T04:47:45.965Z,1006.77
2018-05-17T04:48:27.757Z,1006.77
2018-05-17T04:49:08.700Z,1006.76
2018-05-17T04:49:49.623Z,1006.81
2018-05-17T04:50:31.163Z,1006.81
2018-05-17T04:51:12.202Z,1006.81
2018-05-17T04:51:53.106Z,1006.83
2018-05-17T04:52:34.044Z,1006.81
2018-05-17T04:53:15.065Z,1006.81
2018-05-17T04:53:56.088Z,1006.84
2018-05-17T04:54:37.047Z,1006.84
2018-05-17T04:55:18.150Z,1006.84
2018-05-17T04:55:59.122Z,1006.83
2018-05-17T04:56:40.010Z,1006.85
2018-05-17T04:57:21.786Z,1006.86
2018-05-17T04:58:03.043Z,1006.85
2018-05-17T04:58:44.186Z,1006.9
2018-05-17T04:59:25.909Z,1006.89
2018-05-17T05:00:09.329Z,1006.88
2018-05-17T05:00:50.395Z,1006.9
2018-05-17T05:01:33.488Z,1006.89
2018-05-17T05:02:14.652Z,1006.9
2018-05-17T05:02:57.381Z,1006.9
2018-05-17T05:03:44.068Z,1006.91
2018-05-17T05:04:28.394Z,1006.9
2018-05-17T05:05:11.250Z,1006.89
2018-05-17T05:06:01.576Z,1006.86
2018-05-17T05:06:45.339Z,1006.91
2018-05-17T05:07:32.594Z,1006.88
2018-05-17T05:08:14.452Z,1006.87
2018-05-17T05:08:56.959Z,1006.91
2018-05-17T05:09:41.326Z,1006.94
2018-05-17T05:10:28.370Z,1006.96
2018-05-17T05:11:09.903Z,1006.97
2018-05-17T05:11:51.531Z,1006.94
2018-05-17T05:12:33.877Z,1006.96
2018-05-17T05:13:17.991Z,1006.99
2018-05-17T05:14:07.719Z,1006.99
2018-05-17T05:14:52.783Z,1007.02
2018-05-17T05:15:35.813Z,1007.01
2018-05-17T05:16:20.022Z,1007.01
2018-05-17T05:17:07.737Z,1007.02
2018-05-17T05:17:51.023Z,1007
2018-05-17T05:18:33.493Z,1007.05
2018-05-17T05:19:15.769Z,1007.02
2018-05-17T05:19:57.924Z,1007.05
2018-05-17T05:20:44.931Z,1007.08
2018-05-17T05:21:27.429Z,1007.08
2018-05-17T05:22:11.121Z,1007.06
2018-05-17T05:22:52.476Z,1007.1
2018-05-17T05:23:36.104Z,1007.09
2018-05-17T05:24:20.399Z,1007.14
2018-05-17T05:25:01.700Z,1007.14
2018-05-17T05:25:43.609Z,1007.1
2018-05-17T05:26:25.650Z,1007.12
2018-05-17T05:27:10.646Z,1007.09
2018-05-17T05:27:54.881Z,1007.08
2018-05-17T05:28:41.057Z,1007.08
2018-05-17T05:29:29.195Z,1007.07
2018-05-17T05:30:14.415Z,1007.13
2018-05-17T05:30:55.358Z,1007.15
2018-05-17T05:31:38.643Z,1007.13
2018-05-17T05:32:24.952Z,1007.15
2018-05-17T05:33:07.464Z,1007.18
2018-05-17T05:33:51.908Z,1007.28
2018-05-17T05:34:37.612Z,1007.33
2018-05-17T05:35:18.994Z,1007.39
2018-05-17T05:36:01.195Z,1007.36
2018-05-17T05:36:43.471Z,1007.41
2018-05-17T05:37:31.003Z,1007.38
2018-05-17T05:38:14.243Z,1007.43
2018-05-17T05:38:57.375Z,1007.4
2018-05-17T05:39:39.628Z,1007.5
2018-05-17T05:40:21.837Z,1007.56
2018-05-17T05:41:04.739Z,1007.52
2018-05-17T05:41:47.223Z,1007.52
2018-05-17T05:42:30.126Z,1007.48
2018-05-17T05:43:15.123Z,1007.45
2018-05-17T05:44:02.023Z,1007.42
2018-05-17T05:44:47.601Z,1007.53
2018-05-17T05:45:31.034Z,1007.56
2018-05-17T05:46:13.093Z,1007.7
2018-05-17T05:46:53.667Z,1007.64
2018-05-17T05:47:34.256Z,1007.63
2018-05-17T05:48:14.848Z,1007.67
2018-05-17T05:48:55.428Z,1007.73
2018-05-17T05:49:36.063Z,1007.72
2018-05-17T05:50:16.537Z,1007.74
2018-05-17T05:50:57.147Z,1007.8
2018-05-17T05:51:37.706Z,1007.89
2018-05-17T05:52:21.884Z,1007.98
2018-05-17T05:53:04.124Z,1007.95
2018-05-17T05:53:49.801Z,1008.04
2018-05-17T05:54:34.140Z,1008.04
2018-05-17T05:55:19.698Z,1008.12
2018-05-17T05:56:04.918Z,1008.13
2018-05-17T05:56:46.482Z,1008.26
2018-05-17T05:57:30.523Z,1008.31
2018-05-17T05:58:12.743Z,1008.43
2018-05-17T05:58:58.096Z,1008.47
2018-05-17T05:59:44.262Z,1008.52
2018-05-17T06:00:31.060Z,1008.63
2018-05-17T06:01:15.180Z,1008.71
2018-05-17T06:01:58.904Z,1008.78
2018-05-17T06:02:42.265Z,1008.74
2018-05-17T06:03:23.827Z,1008.74
2018-05-17T06:04:06.256Z,1008.81
2018-05-17T06:04:50.202Z,1008.91
2018-05-17T06:05:34.904Z,1008.94
2018-05-17T06:06:16.922Z,1008.87
2018-05-17T06:07:03.551Z,1008.92
2018-05-17T06:07:46.900Z,1008.88
2018-05-17T06:08:28.288Z,1008.94
2018-05-17T06:09:12.615Z,1008.88
2018-05-17T06:09:54.651Z,1008.8
2018-05-17T06:10:37.441Z,1008.76
2018-05-17T06:11:19.479Z,1008.66
2018-05-17T06:12:01.661Z,1008.43
2018-05-17T06:12:44.188Z,1008.16
2018-05-17T06:13:25.899Z,1007.95
2018-05-17T06:14:08.686Z,1007.87
2018-05-17T06:14:54.518Z,1007.81
2018-05-17T06:15:38.290Z,1007.78
2018-05-17T06:16:21.913Z,1007.78
2018-05-17T06:17:02.959Z,1007.83
2018-05-17T06:17:49.145Z,1007.79
2018-05-17T06:18:31.414Z,1007.8
2018-05-17T06:19:16.950Z,1007.8
2018-05-17T06:19:59.954Z,1007.87
2018-05-17T06:20:41.939Z,1007.9
2018-05-17T06:21:26.030Z,1008.11
2018-05-17T06:22:14.399Z,1008.34
2018-05-17T06:22:57.352Z,1008.47
2018-05-17T06:23:39.509Z,1008.48
2018-05-17T06:24:24.173Z,1008.32
2018-05-17T06:25:09.586Z,1008.28
2018-05-17T06:26:00.520Z,1008.34
2018-05-17T06:26:44.486Z,1008.36
2018-05-17T06:27:25.888Z,1008.4
2018-05-17T06:28:08.458Z,1008.41
2018-05-17T06:28:52.701Z,1008.25
2018-05-17T06:29:36.144Z,1008.26
2018-05-17T06:30:19.310Z,1008.4
2018-05-17T06:31:06.521Z,1008.32
2018-05-17T06:31:49.030Z,1008.2
2018-05-17T06:32:35.623Z,1008.08
2018-05-17T06:33:23.985Z,1008.03
2018-05-17T06:34:08.703Z,1007.98
2018-05-17T06:34:50.207Z,1007.98
2018-05-17T06:35:33.737Z,1007.99
2018-05-17T06:36:17.759Z,1007.97
2018-05-17T06:37:00.146Z,1007.95
2018-05-17T06:37:43.140Z,1007.93
2018-05-17T06:38:27.812Z,1007.95
2018-05-17T06:39:15.054Z,1007.9
2018-05-17T06:40:06.202Z,1007.93
2018-05-17T06:40:48.004Z,1007.89
2018-05-17T06:41:30.352Z,1007.93
2018-05-17T06:42:12.933Z,1007.9
2018-05-17T06:42:54.180Z,1007.91
2018-05-17T06:43:41.202Z,1007.91
2018-05-17T06:44:25.426Z,1007.96
2018-05-17T06:45:08.931Z,1007.95
2018-05-17T06:45:53.403Z,1007.94
2018-05-17T06:46:35.655Z,1007.92
2018-05-17T06:47:17.916Z,1007.95
2018-05-17T06:48:02.231Z,1007.96
2018-05-17T06:48:44.489Z,1007.96
2018-05-17T06:49:27.309Z,1007.99
2018-05-17T06:50:10.660Z,1007.96
2018-05-17T06:50:53.363Z,1007.97
2018-05-17T06:51:36.160Z,1007.97
2018-05-17T06:52:19.980Z,1008.04
2018-05-17T06:53:02.803Z,1007.99
2018-05-17T06:53:45.427Z,1008.04
2018-05-17T06:54:29.059Z,1007.95
2018-05-17T06:55:11.455Z,1007.99
2018-05-17T06:55:53.649Z,1007.92
2018-05-17T06:56:37.473Z,1008.02
2018-05-17T06:57:20.023Z,1007.97
2018-05-17T06:58:05.548Z,1007.97
2018-05-17T06:58:49.257Z,1008
2018-05-17T06:59:37.032Z,1007.96
2018-05-17T07:00:19.456Z,1007.91
2018-05-17T07:01:09.668Z,1007.93
2018-05-17T07:01:55.142Z,1007.95
2018-05-17T07:02:41.366Z,1007.98
2018-05-17T07:03:24.865Z,1007.96
2018-05-17T07:04:07.839Z,1007.96
2018-05-17T07:04:51.244Z,1007.98
2018-05-17T07:05:34.488Z,1007.93
2018-05-17T07:06:16.847Z,1007.96
2018-05-17T07:07:00.515Z,1008
2018-05-17T07:07:42.437Z,1007.94
2018-05-17T07:08:28.713Z,1007.94
2018-05-17T07:09:12.484Z,1007.97
2018-05-17T07:09:55.351Z,1007.98
2018-05-17T07:10:41.239Z,1007.99
2018-05-17T07:11:22.528Z,1007.93
2018-05-17T07:12:06.719Z,1007.96
2018-05-17T07:12:53.786Z,1007.97
2018-05-17T07:13:37.244Z,1007.93
2018-05-17T07:14:22.548Z,1007.98
2018-05-17T07:15:08.857Z,1008
2018-05-17T07:15:50.676Z,1007.99
2018-05-17T07:16:34.707Z,1008
2018-05-17T07:17:19.455Z,1007.93
2018-05-17T07:18:02.202Z,1008
2018-05-17T07:18:45.380Z,1007.99
2018-05-17T07:19:36.291Z,1007.96
2018-05-17T07:20:29.339Z,1008
2018-05-17T07:21:21.814Z,1007.96
2018-05-17T07:22:09.530Z,1008.03
2018-05-17T07:22:53.418Z,1008.02
2018-05-17T07:23:35.895Z,1008.07
2018-05-17T07:24:20.924Z,1008.13
2018-05-17T07:25:04.621Z,1008.22
2018-05-17T07:25:49.135Z,1008.25
2018-05-17T07:26:31.792Z,1008.2
2018-05-17T07:27:14.997Z,1008.2
2018-05-17T07:27:59.030Z,1008.22
2018-05-17T07:28:42.932Z,1008.22
2018-05-17T07:29:25.651Z,1008.23
2018-05-17T07:30:08.746Z,1008.24
2018-05-17T07:30:51.111Z,1008.19
2018-05-17T07:31:33.198Z,1008.23
2018-05-17T07:32:19.981Z,1008.16
2018-05-17T07:33:03.114Z,1008.18
2018-05-17T07:33:47.066Z,1008.14
2018-05-17T07:34:28.724Z,1008.18
2018-05-17T07:35:13.983Z,1008.22
2018-05-17T07:35:58.147Z,1008.27
2018-05-17T07:36:42.850Z,1008.26
2018-05-17T07:37:29.876Z,1008.16
2018-05-17T07:38:16.209Z,1008.17
2018-05-17T07:39:13.882Z,1008.25
2018-05-17T07:39:59.204Z,1008.19
2018-05-17T07:40:45.705Z,1008.26
2018-05-17T07:41:29.159Z,1008.29
2018-05-17T07:42:14.463Z,1008.25
2018-05-17T07:42:58.036Z,1008.26
2018-05-17T07:43:42.718Z,1008.32
2018-05-17T07:44:28.568Z,1008.29
2018-05-17T07:45:11.499Z,1008.28
2018-05-17T07:45:52.540Z,1008.29
2018-05-17T07:46:34.973Z,1008.33
2018-05-17T07:47:17.229Z,1008.27
2018-05-17T07:47:59.670Z,1008.27
2018-05-17T07:48:44.124Z,1008.23
2018-05-17T07:49:28.522Z,1008.29
2018-05-17T07:50:10.445Z,1008.29
2018-05-17T07:50:54.936Z,1008.3
2018-05-17T07:51:39.128Z,1008.25
2018-05-17T07:52:23.334Z,1008.21
2018-05-17T07:53:09.135Z,1008.18
2018-05-17T07:53:53.924Z,1008.18
2018-05-17T07:54:35.801Z,1008.2
2018-05-17T07:55:21.032Z,1008.2
2018-05-17T07:56:03.379Z,1008.16
2018-05-17T07:56:47.141Z,1008.25
2018-05-17T07:57:29.878Z,1008.24
2018-05-17T07:58:15.998Z,1008.21
2018-05-17T07:59:00.070Z,1008.22
2018-05-17T07:59:43.041Z,1008.25
2018-05-17T08:00:28.027Z,1008.28
2018-05-17T08:01:11.942Z,1008.22
2018-05-17T08:01:54.036Z,1008.21
2018-05-17T08:02:38.521Z,1008.22
2018-05-17T08:03:19.847Z,1008.24
2018-05-17T08:04:02.863Z,1008.22
2018-05-17T08:04:45.845Z,1008.19
2018-05-17T08:05:29.512Z,1008.2
2018-05-17T08:06:15.565Z,1008.17
2018-05-17T08:06:56.837Z,1008.15
2018-05-17T08:07:40.705Z,1008.2
2018-05-17T08:08:22.954Z,1008.11
2018-05-17T08:09:05.490Z,1008.12
2018-05-17T08:09:46.048Z,1008.13
2018-05-17T08:10:26.625Z,1008.18
2018-05-17T08:11:07.221Z,1008.16
2018-05-17T08:11:47.774Z,1008.21
2018-05-17T08:12:28.364Z,1008.24
2018-05-17T08:13:08.944Z,1008.24
2018-05-17T08:13:49.501Z,1008.24
2018-05-17T08:14:30.081Z,1008.2
2018-05-17T08:15:10.630Z,1008.18
2018-05-17T08:15:51.247Z,1008.23
2018-05-17T08:16:31.806Z,1008.23
2018-05-17T08:17:12.403Z,1008.26
2018-05-17T08:17:52.984Z,1008.23
2018-05-17T08:18:33.534Z,1008.27
2018-05-17T08:19:14.113Z,1008.24
2018-05-17T08:19:54.678Z,1008.24
2018-05-17T08:20:35.280Z,1008.21
2018-05-17T08:21:15.844Z,1008.25
2018-05-17T08:21:56.415Z,1008.26
2018-05-17T08:22:37.029Z,1008.28
2018-05-17T08:23:17.596Z,1008.23
2018-05-17T08:23:58.689Z,1008.24
2018-05-17T08:24:39.260Z,1008.25
2018-05-17T08:25:19.863Z,1008.24
2018-05-17T08:26:00.427Z,1008.2
2018-05-17T08:26:41.039Z,1008.22
2018-05-17T08:27:21.618Z,1008.17
2018-05-17T08:28:02.207Z,1008.21